createdAt,value
2023-05-14T00:00:42.031Z,56.88
2023-05-14T00:03:08.761Z,56.97
2023-05-14T00:05:35.489Z,57.13
2023-05-14T00:08:02.439Z,56.83
2023-05-14T00:10:28.991Z,56.94
2023-05-14T00:12:55.756Z,57.16
2023-05-14T00:15:22.390Z,57.05
2023-05-14T00:17:49.005Z,56.89
2023-05-14T00:20:15.642Z,57.18
2023-05-14T00:22:42.240Z,57.24
2023-05-14T00:25:09.642Z,57.09
2023-05-14T00:27:37.873Z,57.05
2023-05-14T00:30:06.876Z,57.00
2023-05-14T00:32:33.694Z,56.96
2023-05-14T00:35:00.344Z,57.14
2023-05-14T00:37:26.910Z,56.73
2023-05-14T00:39:53.462Z,57.13
2023-05-14T00:42:20.035Z,57.00
2023-05-14T00:44:46.582Z,56.93
2023-05-14T00:47:13.310Z,56.59
2023-05-14T00:49:40.952Z,56.78
2023-05-14T00:52:08.937Z,56.59
2023-05-14T00:54:36.420Z,56.75
2023-05-14T00:57:03.988Z,56.53
2023-05-14T00:59:30.524Z,56.72
2023-05-14T01:01:57.149Z,56.42
2023-05-14T01:04:24.031Z,56.69
2023-05-14T01:07:18.709Z,56.40
2023-05-14T01:10:12.141Z,56.68
2023-05-14T01:12:53.413Z,56.68
2023-05-14T01:15:22.492Z,56.54
2023-05-14T01:17:54.071Z,56.65
2023-05-14T01:20:20.941Z,56.42
2023-05-14T01:22:47.597Z,56.52
2023-05-14T01:25:14.250Z,56.44
2023-05-14T01:27:58.430Z,56.22
2023-05-14T01:30:40.421Z,56.49
2023-05-14T01:33:07.375Z,56.64
2023-05-14T01:35:33.993Z,56.47
2023-05-14T01:38:02.306Z,56.33
2023-05-14T01:40:29.389Z,56.05
2023-05-14T01:42:56.832Z,56.28
2023-05-14T01:45:26.597Z,56.06
2023-05-14T01:47:54.294Z,55.88
2023-05-14T01:50:21.234Z,55.95
2023-05-14T01:52:53.436Z,56.05
2023-05-14T01:55:20.162Z,55.97
2023-05-14T01:57:46.688Z,55.95
2023-05-14T02:00:13.722Z,56.43
2023-05-14T02:02:40.707Z,56.39
2023-05-14T02:05:07.911Z,56.38
2023-05-14T02:07:34.552Z,56.33
2023-05-14T02:10:01.188Z,56.22
2023-05-14T02:12:27.746Z,56.23
2023-05-14T02:14:54.376Z,56.40
2023-05-14T02:17:20.929Z,56.25
2023-05-14T02:19:47.574Z,55.96
2023-05-14T02:22:14.315Z,56.02
2023-05-14T02:24:41.162Z,56.22
2023-05-14T02:27:07.826Z,56.32
2023-05-14T02:29:34.626Z,56.25
2023-05-14T02:32:01.240Z,56.13
2023-05-14T02:34:27.748Z,56.21
2023-05-14T02:36:54.272Z,55.89
2023-05-14T02:39:20.811Z,55.87
2023-05-14T02:41:47.358Z,55.80
2023-05-14T02:44:13.947Z,55.95
2023-05-14T02:46:40.551Z,55.96
2023-05-14T02:49:07.086Z,56.01
2023-05-14T02:51:33.704Z,56.17
2023-05-14T02:54:00.463Z,56.12
2023-05-14T02:56:26.967Z,56.26
2023-05-14T02:58:53.512Z,56.16
2023-05-14T03:01:20.928Z,56.27
2023-05-14T03:03:48.034Z,55.96
2023-05-14T03:06:15.003Z,56.04
2023-05-14T03:08:41.703Z,56.04
2023-05-14T03:11:08.288Z,56.14
2023-05-14T03:13:34.785Z,55.77
2023-05-14T03:16:01.343Z,55.90
2023-05-14T03:18:30.683Z,56.07
2023-05-14T03:20:57.400Z,56.23
2023-05-14T03:23:23.946Z,56.21
2023-05-14T03:25:50.976Z,56.03
2023-05-14T03:28:17.531Z,56.12
2023-05-14T03:30:44.139Z,56.15
2023-05-14T03:33:12.409Z,56.45
2023-05-14T03:35:39.354Z,56.39
2023-05-14T03:38:06.045Z,56.47
2023-05-14T03:40:32.638Z,56.26
2023-05-14T03:42:59.300Z,56.25
2023-05-14T03:45:27.003Z,56.05
2023-05-14T03:47:53.650Z,56.08
2023-05-14T03:50:20.432Z,56.23
2023-05-14T03:52:46.949Z,56.34
2023-05-14T03:55:13.576Z,56.35
2023-05-14T03:57:40.692Z,56.76
2023-05-14T04:00:07.826Z,56.61
2023-05-14T04:02:34.448Z,56.85
2023-05-14T04:05:01.084Z,56.54
2023-05-14T04:07:27.668Z,56.57
2023-05-14T04:09:54.173Z,56.60
2023-05-14T04:12:20.752Z,56.66
2023-05-14T04:14:47.283Z,56.79
2023-05-14T04:17:13.914Z,56.77
2023-05-14T04:19:40.513Z,56.69
2023-05-14T04:22:07.075Z,56.72
2023-05-14T04:24:33.610Z,56.76
2023-05-14T04:27:00.163Z,57.06
2023-05-14T04:29:26.741Z,56.98
2023-05-14T04:31:53.650Z,56.52
2023-05-14T04:34:20.357Z,56.57
2023-05-14T04:36:46.954Z,56.47
2023-05-14T04:39:13.484Z,56.62
2023-05-14T04:41:40.104Z,56.44
2023-05-14T04:44:07.130Z,56.74
2023-05-14T04:46:33.846Z,57.16
2023-05-14T04:49:00.588Z,57.28
2023-05-14T04:51:27.688Z,57.34
2023-05-14T04:53:54.255Z,57.23
2023-05-14T04:56:21.562Z,57.03
2023-05-14T04:58:48.184Z,56.90
2023-05-14T05:01:15.251Z,57.25
2023-05-14T05:03:43.277Z,57.09
2023-05-14T05:06:09.905Z,56.96
2023-05-14T05:08:36.599Z,56.61
2023-05-14T05:11:03.128Z,56.89
2023-05-14T05:13:30.782Z,56.31
2023-05-14T05:15:57.353Z,56.56
2023-05-14T05:18:23.987Z,56.39
2023-05-14T05:20:50.501Z,56.35
2023-05-14T05:23:17.090Z,56.48
2023-05-14T05:25:43.632Z,56.60
2023-05-14T05:28:10.369Z,56.39
2023-05-14T05:30:36.955Z,56.41
2023-05-14T05:33:03.694Z,56.17
2023-05-14T05:35:30.344Z,56.30
2023-05-14T05:38:00.493Z,56.20
2023-05-14T05:40:27.965Z,56.40
2023-05-14T05:42:54.596Z,56.35
2023-05-14T05:45:21.230Z,56.10
2023-05-14T05:47:47.803Z,56.15
2023-05-14T05:52:41.581Z,56.25
2023-05-14T05:55:08.582Z,56.14
2023-05-14T05:57:35.110Z,55.96
2023-05-14T06:00:07.948Z,56.22
2023-05-14T06:02:34.614Z,56.08
2023-05-14T06:05:01.318Z,55.76
2023-05-14T06:07:27.928Z,56.23
2023-05-14T06:09:54.465Z,56.23
2023-05-14T06:12:21.761Z,55.84
2023-05-14T06:14:48.269Z,55.99
2023-05-14T06:17:14.845Z,55.83
2023-05-14T06:19:41.377Z,55.80
2023-05-14T06:22:07.923Z,55.36
2023-05-14T06:24:34.483Z,55.62
2023-05-14T06:27:01.139Z,55.46
2023-05-14T06:29:27.747Z,55.39
2023-05-14T06:31:54.399Z,55.26
2023-05-14T06:34:21.075Z,55.17
2023-05-14T06:36:47.687Z,55.08
2023-05-14T06:39:14.256Z,55.03
2023-05-14T06:41:40.782Z,54.98
2023-05-14T06:44:07.296Z,54.71
2023-05-14T06:46:33.841Z,54.47
2023-05-14T06:49:00.527Z,54.05
2023-05-14T06:51:27.297Z,54.13
2023-05-14T06:54:14.996Z,54.00
2023-05-14T06:56:41.503Z,54.06
2023-05-14T06:59:08.019Z,53.85
2023-05-14T07:01:34.606Z,54.05
2023-05-14T07:04:01.237Z,54.06
2023-05-14T07:06:27.943Z,53.99
2023-05-14T07:08:54.605Z,53.85
2023-05-14T07:11:22.275Z,54.06
2023-05-14T07:13:48.999Z,53.77
2023-05-14T07:16:15.568Z,53.92
2023-05-14T07:18:42.213Z,53.97
2023-05-14T07:21:09.123Z,53.89
2023-05-14T07:23:38.554Z,53.52
2023-05-14T07:26:06.198Z,53.78
2023-05-14T07:28:32.927Z,53.32
2023-05-14T07:30:59.825Z,53.33
2023-05-14T07:33:26.530Z,53.48
2023-05-14T07:35:54.159Z,53.14
2023-05-14T07:38:21.029Z,53.17
2023-05-14T07:40:47.588Z,53.14
2023-05-14T07:43:14.201Z,53.27
2023-05-14T07:45:40.915Z,53.08
2023-05-14T07:48:07.656Z,52.67
2023-05-14T07:50:34.409Z,52.68
2023-05-14T07:53:00.945Z,52.35
2023-05-14T07:55:27.438Z,52.27
2023-05-14T07:57:53.984Z,52.29
2023-05-14T08:00:20.709Z,52.29
2023-05-14T08:02:49.245Z,52.18
2023-05-14T08:05:16.695Z,52.17
2023-05-14T08:07:43.476Z,51.80
2023-05-14T08:10:10.352Z,51.84
2023-05-14T08:12:36.944Z,51.66
2023-05-14T08:15:03.911Z,52.02
2023-05-14T08:17:30.596Z,52.07
2023-05-14T08:19:57.219Z,51.97
2023-05-14T08:22:23.738Z,51.80
2023-05-14T08:24:50.310Z,51.39
2023-05-14T08:27:17.235Z,52.03
2023-05-14T08:29:43.783Z,51.75
2023-05-14T08:32:22.226Z,52.00
2023-05-14T08:34:51.899Z,51.96
2023-05-14T08:37:18.653Z,52.05
2023-05-14T08:39:45.251Z,51.97
2023-05-14T08:42:13.335Z,51.84
2023-05-14T08:44:50.201Z,51.99
2023-05-14T08:47:20.216Z,52.05
2023-05-14T08:49:48.045Z,52.07
2023-05-14T08:52:16.410Z,51.92
2023-05-14T08:54:42.999Z,51.62
2023-05-14T08:57:10.666Z,51.90
2023-05-14T08:59:37.666Z,51.82
2023-05-14T09:02:06.389Z,51.81
2023-05-14T09:04:33.935Z,51.70
2023-05-14T09:07:02.180Z,51.98
2023-05-14T09:09:28.941Z,51.49
2023-05-14T09:11:55.629Z,51.51
2023-05-14T09:14:23.374Z,51.41
2023-05-14T09:16:50.996Z,51.47
2023-05-14T09:19:19.397Z,51.30
2023-05-14T09:21:47.518Z,51.20
2023-05-14T09:24:21.619Z,51.49
2023-05-14T09:26:53.297Z,51.35
2023-05-14T09:29:19.983Z,51.28
2023-05-14T09:31:46.688Z,51.05
2023-05-14T09:34:27.579Z,51.01
2023-05-14T09:36:58.467Z,51.00
2023-05-14T09:39:26.443Z,51.04
2023-05-14T09:41:53.349Z,50.88
2023-05-14T09:44:20.352Z,50.78
2023-05-14T09:46:47.398Z,50.60
2023-05-14T09:49:14.418Z,50.85
2023-05-14T09:51:41.235Z,50.84
2023-05-14T09:54:08.315Z,50.53
2023-05-14T09:56:36.422Z,50.30
2023-05-14T09:59:04.055Z,50.36
2023-05-14T10:01:31.097Z,50.51
2023-05-14T10:03:57.772Z,50.34
2023-05-14T10:06:28.144Z,50.22
2023-05-14T10:09:01.536Z,49.75
2023-05-14T10:11:31.329Z,49.92
2023-05-14T10:13:57.840Z,49.81
2023-05-14T10:16:56.687Z,49.71
2023-05-14T10:19:24.833Z,49.56
2023-05-14T10:22:04.721Z,49.56
2023-05-14T10:24:31.755Z,49.56
2023-05-14T10:26:58.872Z,49.75
2023-05-14T10:29:35.327Z,49.62
2023-05-14T10:32:07.000Z,49.34
2023-05-14T10:34:40.964Z,49.18
2023-05-14T10:37:12.547Z,49.30
2023-05-14T10:39:59.380Z,49.28
2023-05-14T10:42:35.444Z,49.30
2023-05-14T10:45:07.401Z,48.77
2023-05-14T10:47:40.011Z,48.55
2023-05-14T10:50:08.680Z,48.44
2023-05-14T10:52:35.491Z,48.68
2023-05-14T10:55:04.371Z,48.46
2023-05-14T10:57:32.026Z,48.57
2023-05-14T11:00:00.497Z,48.56
2023-05-14T11:02:38.157Z,48.32
2023-05-14T11:05:17.312Z,47.81
2023-05-14T11:07:46.273Z,47.11
2023-05-14T11:10:14.051Z,47.06
2023-05-14T11:12:42.482Z,47.15
2023-05-14T11:15:11.163Z,46.78
2023-05-14T11:17:38.970Z,47.38
2023-05-14T11:20:06.662Z,47.36
2023-05-14T11:22:34.173Z,47.44
2023-05-14T11:25:00.837Z,47.33
2023-05-14T11:27:27.524Z,47.06
2023-05-14T11:29:55.954Z,46.91
2023-05-14T11:32:22.810Z,46.81
2023-05-14T11:34:49.641Z,46.49
2023-05-14T11:37:17.185Z,46.27
2023-05-14T11:39:52.220Z,46.44
2023-05-14T11:42:19.721Z,46.34
2023-05-14T11:44:51.940Z,46.13
2023-05-14T11:47:19.827Z,46.25
2023-05-14T11:49:46.661Z,46.23
2023-05-14T11:52:14.832Z,46.03
2023-05-14T11:54:44.958Z,46.16
2023-05-14T11:57:22.017Z,46.31
2023-05-14T11:59:49.734Z,46.05
2023-05-14T12:02:18.035Z,45.92
2023-05-14T12:04:45.216Z,45.63
2023-05-14T12:07:13.612Z,45.98
2023-05-14T12:09:45.081Z,46.31
2023-05-14T12:12:12.955Z,46.23
2023-05-14T12:14:42.525Z,46.33
2023-05-14T12:17:17.482Z,46.37
2023-05-14T12:19:45.642Z,46.38
2023-05-14T12:22:15.213Z,46.48
2023-05-14T12:24:43.376Z,46.35
2023-05-14T12:27:10.630Z,46.46
2023-05-14T12:29:41.180Z,46.32
2023-05-14T12:32:09.416Z,46.10
2023-05-14T12:34:37.701Z,45.99
2023-05-14T12:37:07.297Z,46.04
2023-05-14T12:39:34.895Z,46.16
2023-05-14T12:42:01.924Z,46.26
2023-05-14T12:44:29.073Z,46.21
2023-05-14T12:46:56.775Z,46.19
2023-05-14T12:49:23.482Z,46.15
2023-05-14T12:51:52.688Z,46.17
2023-05-14T12:54:23.483Z,46.04
2023-05-14T12:56:50.078Z,46.32
2023-05-14T12:59:16.751Z,46.30
2023-05-14T13:01:43.526Z,46.31
2023-05-14T13:04:12.538Z,46.22
2023-05-14T13:06:39.804Z,46.59
2023-05-14T13:09:07.219Z,46.47
2023-05-14T13:11:33.924Z,46.48
2023-05-14T13:14:02.174Z,46.62
2023-05-14T13:16:29.429Z,46.73
2023-05-14T13:18:56.163Z,47.10
2023-05-14T13:21:22.812Z,47.08
2023-05-14T13:23:49.413Z,47.19
2023-05-14T13:26:16.208Z,47.30
2023-05-14T13:28:43.752Z,47.31
2023-05-14T13:31:12.251Z,47.33
2023-05-14T13:33:42.017Z,47.44
2023-05-14T13:36:09.624Z,47.47
2023-05-14T13:38:36.381Z,47.45
2023-05-14T13:41:03.092Z,47.52
2023-05-14T13:43:34.153Z,47.72
2023-05-14T13:46:01.577Z,47.62
2023-05-14T13:48:28.517Z,47.84
2023-05-14T13:50:55.233Z,47.87
2023-05-14T13:53:23.039Z,48.13
2023-05-14T13:55:50.491Z,48.11
2023-05-14T13:58:17.287Z,48.16
2023-05-14T14:00:43.871Z,48.16
2023-05-14T14:03:10.698Z,48.10
2023-05-14T14:05:37.751Z,47.98
2023-05-14T14:08:21.851Z,48.03
2023-05-14T14:10:49.417Z,48.04
2023-05-14T14:13:16.168Z,48.28
2023-05-14T14:15:43.816Z,48.24
2023-05-14T14:18:10.687Z,48.66
2023-05-14T14:20:37.214Z,48.47
2023-05-14T14:23:03.774Z,48.68
2023-05-14T14:25:30.355Z,48.70
2023-05-14T14:27:56.966Z,48.93
2023-05-14T14:30:23.515Z,48.89
2023-05-14T14:32:50.659Z,49.04
2023-05-14T14:35:18.911Z,49.30
2023-05-14T14:37:49.398Z,49.48
2023-05-14T14:40:16.871Z,49.65
2023-05-14T14:42:43.711Z,49.55
2023-05-14T14:45:10.761Z,49.50
2023-05-14T14:47:37.508Z,49.74
2023-05-14T14:50:04.515Z,49.53
2023-05-14T14:52:31.271Z,49.59
2023-05-14T14:54:57.882Z,49.80
2023-05-14T14:57:24.439Z,49.68
2023-05-14T14:59:51.056Z,49.71
2023-05-14T15:02:17.768Z,49.84
2023-05-14T15:04:44.353Z,49.91
2023-05-14T15:07:11.262Z,50.00
2023-05-14T15:09:37.868Z,50.15
2023-05-14T15:12:05.131Z,49.93
2023-05-14T15:14:31.702Z,50.26
2023-05-14T15:16:58.380Z,50.43
2023-05-14T15:19:24.983Z,50.30
2023-05-14T15:21:53.182Z,50.25
2023-05-14T15:24:19.783Z,50.60
2023-05-14T15:26:46.818Z,50.48
2023-05-14T15:29:13.471Z,50.60
2023-05-14T15:31:41.495Z,50.63
2023-05-14T15:34:08.237Z,50.86
2023-05-14T15:36:34.826Z,50.80
2023-05-14T15:39:01.468Z,51.02
2023-05-14T15:41:28.814Z,51.13
2023-05-14T15:43:56.176Z,51.24
2023-05-14T15:46:28.384Z,51.09
2023-05-14T15:48:55.961Z,51.04
2023-05-14T15:51:22.575Z,51.25
2023-05-14T15:53:49.167Z,51.14
2023-05-14T15:56:16.096Z,51.49
2023-05-14T15:58:42.705Z,51.46
2023-05-14T16:01:09.376Z,51.43
2023-05-14T16:03:36.103Z,51.59
2023-05-14T16:06:02.724Z,51.71
2023-05-14T16:08:29.591Z,51.87
2023-05-14T16:10:56.193Z,51.83
2023-05-14T16:13:23.345Z,51.97
2023-05-14T16:15:50.063Z,52.08
2023-05-14T16:18:16.604Z,52.00
2023-05-14T16:20:43.172Z,52.11
2023-05-14T16:23:09.706Z,52.48
2023-05-14T16:25:36.422Z,52.48
2023-05-14T16:28:03.073Z,52.68
2023-05-14T16:30:29.745Z,52.50
2023-05-14T16:32:56.334Z,52.89
2023-05-14T16:35:22.904Z,52.91
2023-05-14T16:37:49.462Z,53.14
2023-05-14T16:40:16.242Z,52.92
2023-05-14T16:42:42.942Z,53.08
2023-05-14T16:45:09.970Z,53.26
2023-05-14T16:47:36.565Z,53.46
2023-05-14T16:50:03.343Z,53.35
2023-05-14T16:52:29.975Z,53.50
2023-05-14T16:54:56.665Z,53.52
2023-05-14T16:57:23.205Z,53.66
2023-05-14T16:59:49.885Z,53.80
2023-05-14T17:02:16.534Z,53.63
2023-05-14T17:04:43.367Z,54.19
2023-05-14T17:07:10.383Z,54.14
2023-05-14T17:09:37.102Z,54.13
2023-05-14T17:12:05.031Z,54.09
2023-05-14T17:14:31.977Z,54.34
2023-05-14T17:16:58.616Z,54.24
2023-05-14T17:19:25.262Z,54.50
2023-05-14T17:21:51.844Z,54.76
2023-05-14T17:24:18.392Z,54.91
2023-05-14T17:26:44.978Z,54.93
2023-05-14T17:29:11.680Z,54.90
2023-05-14T17:31:38.480Z,54.91
2023-05-14T17:34:05.079Z,54.82
2023-05-14T17:36:32.388Z,55.01
2023-05-14T17:38:58.899Z,55.24
2023-05-14T17:41:25.427Z,55.07
2023-05-14T17:43:54.803Z,55.00
2023-05-14T17:46:21.523Z,55.14
2023-05-14T17:48:48.110Z,55.00
2023-05-14T17:51:14.702Z,55.38
2023-05-14T17:53:41.318Z,55.23
2023-05-14T17:56:07.948Z,55.36
2023-05-14T17:58:35.363Z,55.46
2023-05-14T18:01:02.100Z,55.33
2023-05-14T18:03:28.880Z,55.52
2023-05-14T18:05:55.582Z,55.73
2023-05-14T18:08:22.208Z,55.86
2023-05-14T18:10:48.796Z,55.62
2023-05-14T18:13:15.438Z,56.08
2023-05-14T18:15:42.314Z,56.02
2023-05-14T18:18:09.056Z,55.89
2023-05-14T18:20:36.289Z,56.10
2023-05-14T18:23:03.071Z,55.88
2023-05-14T18:25:29.670Z,56.06
2023-05-14T18:27:56.235Z,56.04
2023-05-14T18:30:22.752Z,56.11
2023-05-14T18:32:49.520Z,56.28
2023-05-14T18:35:16.100Z,56.31
2023-05-14T18:37:44.037Z,56.43
2023-05-14T18:40:11.365Z,56.55
2023-05-14T18:42:37.920Z,56.52
2023-05-14T18:45:04.731Z,56.25
2023-05-14T18:47:32.430Z,56.59
2023-05-14T18:50:01.813Z,56.41
2023-05-14T18:52:29.176Z,56.22
2023-05-14T18:54:55.748Z,56.40
2023-05-14T18:57:22.571Z,56.43
2023-05-14T18:59:49.181Z,56.54
2023-05-14T19:02:16.255Z,56.31
2023-05-14T19:04:51.743Z,56.36
2023-05-14T19:07:22.743Z,56.35
2023-05-14T19:09:49.452Z,56.55
2023-05-14T19:12:16.316Z,56.63
2023-05-14T19:14:42.921Z,56.64
2023-05-14T19:17:09.513Z,56.65
2023-05-14T19:19:36.517Z,56.30
2023-05-14T19:22:03.237Z,56.80
2023-05-14T19:24:30.297Z,56.63
2023-05-14T19:26:56.923Z,56.79
2023-05-14T19:29:23.471Z,56.84
2023-05-14T19:31:50.237Z,56.50
2023-05-14T19:34:16.798Z,56.92
2023-05-14T19:36:43.439Z,57.13
2023-05-14T19:39:10.873Z,56.77
2023-05-14T19:41:37.529Z,56.95
2023-05-14T19:44:04.076Z,56.95
2023-05-14T19:46:30.686Z,56.93
2023-05-14T19:48:57.333Z,57.13
2023-05-14T19:51:23.913Z,57.00
2023-05-14T19:53:50.570Z,57.03
2023-05-14T19:56:17.313Z,56.86
2023-05-14T19:58:44.414Z,57.02
2023-05-14T20:01:12.013Z,56.83
2023-05-14T20:03:38.852Z,57.13
2023-05-14T20:06:06.758Z,57.05
2023-05-14T20:08:33.481Z,57.15
2023-05-14T20:11:00.141Z,56.88
2023-05-14T20:13:26.724Z,57.02
2023-05-14T20:15:55.088Z,56.97
2023-05-14T20:18:21.908Z,57.08
2023-05-14T20:20:49.089Z,57.31
2023-05-14T20:23:15.958Z,57.20
2023-05-14T20:25:43.153Z,57.96
2023-05-14T20:28:10.193Z,57.84
2023-05-14T20:30:36.963Z,58.22
2023-05-14T20:33:04.099Z,58.24
2023-05-14T20:35:31.252Z,58.28
2023-05-14T20:37:57.868Z,58.68
2023-05-14T20:40:24.883Z,58.79
2023-05-14T20:42:52.258Z,58.75
2023-05-14T20:45:19.066Z,58.41
2023-05-14T20:47:45.837Z,58.71
2023-05-14T20:50:13.754Z,58.75
2023-05-14T20:52:40.720Z,58.48
2023-05-14T20:55:07.784Z,58.39
2023-05-14T20:57:34.392Z,58.00
2023-05-14T21:00:02.281Z,58.17
2023-05-14T21:02:28.921Z,58.06
2023-05-14T21:04:55.593Z,57.99
2023-05-14T21:07:22.287Z,57.93
2023-05-14T21:09:52.427Z,57.95
2023-05-14T21:12:19.428Z,57.94
2023-05-14T21:14:45.940Z,57.81
2023-05-14T21:17:12.692Z,58.00
2023-05-14T21:19:39.695Z,57.89
2023-05-14T21:22:06.812Z,57.83
2023-05-14T21:24:33.333Z,57.95
2023-05-14T21:26:59.893Z,58.08
2023-05-14T21:29:26.404Z,58.28
2023-05-14T21:31:52.951Z,58.25
2023-05-14T21:34:19.524Z,58.26
2023-05-14T21:36:46.103Z,58.22
2023-05-14T21:39:12.670Z,58.17
2023-05-14T21:41:39.394Z,58.49
2023-05-14T21:44:05.972Z,58.58
2023-05-14T21:46:32.702Z,58.61
2023-05-14T21:48:59.333Z,58.57
2023-05-14T21:51:25.926Z,58.36
2023-05-14T21:53:52.876Z,58.42
2023-05-14T21:56:19.445Z,58.57
2023-05-14T21:58:46.101Z,58.61
2023-05-14T22:01:12.843Z,58.55
2023-05-14T22:03:39.496Z,58.82
2023-05-14T22:06:06.082Z,58.54
2023-05-14T22:08:32.660Z,58.55
2023-05-14T22:10:59.282Z,58.68
2023-05-14T22:13:25.899Z,58.88
2023-05-14T22:16:01.560Z,59.00
2023-05-14T22:18:36.632Z,58.85
2023-05-14T22:21:03.490Z,58.59
2023-05-14T22:23:30.090Z,58.77
2023-05-14T22:25:57.127Z,58.84
2023-05-14T22:28:23.754Z,58.83
2023-05-14T22:30:50.310Z,59.22
2023-05-14T22:33:16.821Z,59.25
2023-05-14T22:35:43.326Z,59.17
2023-05-14T22:38:09.862Z,59.20
2023-05-14T22:40:36.483Z,59.14
2023-05-14T22:43:03.060Z,59.32
2023-05-14T22:45:30.216Z,59.33
2023-05-14T22:47:56.817Z,59.52
2023-05-14T22:50:23.412Z,59.25
2023-05-14T22:52:49.961Z,59.49
2023-05-14T22:55:16.621Z,59.49
2023-05-14T22:57:43.419Z,59.66
2023-05-14T23:00:11.211Z,59.66
2023-05-14T23:02:37.789Z,59.75
2023-05-14T23:05:04.737Z,59.41
2023-05-14T23:07:31.443Z,59.36
2023-05-14T23:09:57.989Z,59.39
2023-05-14T23:12:24.538Z,59.40
2023-05-14T23:14:51.207Z,59.63
2023-05-14T23:17:17.844Z,59.54
2023-05-14T23:19:44.452Z,59.69
2023-05-14T23:22:11.029Z,59.59
2023-05-14T23:24:37.540Z,59.72
2023-05-14T23:27:04.095Z,59.71
2023-05-14T23:29:30.745Z,59.85
2023-05-14T23:31:57.353Z,59.98
2023-05-14T23:34:24.001Z,59.87
2023-05-14T23:36:50.790Z,59.52
2023-05-14T23:39:17.431Z,59.76
2023-05-14T23:41:43.941Z,59.54
2023-05-14T23:44:10.435Z,59.86
2023-05-14T23:46:37.104Z,59.73
2023-05-14T23:49:03.766Z,59.70
2023-05-14T23:51:30.486Z,59.84
2023-05-14T23:53:58.739Z,59.83
2023-05-14T23:56:26.265Z,59.91
2023-05-14T23:58:53.104Z,60.25
